Time;durP1;ratioP1;P1;durP2;ratioP2;P2;SDS_P1;SDS_P2;PMS_P1;PMS_P2;Temp;Humidity;BMP_temperature;BMP_pressure;BME280_temperature;BME280_humidity;BME280_pressure;Samples;Min_cycle;Max_cycle;Signal;HPM_P1;HPM_P2
2023/02/16 00:00:19;;;;;;;30.93;18.90;;;3.00;99.90;;;;;;5096195;28;20482;-62
2023/02/16 00:02:46;;;;;;;50.77;19.37;;;3.10;99.90;;;;;;5099122;27;21474;-62
2023/02/16 00:05:27;;;;;;;42.37;18.93;;;3.10;99.90;;;;;;5097122;27;20515;-62
2023/02/16 00:07:54;;;;;;;45.17;17.67;;;3.20;99.90;;;;;;5091787;27;20454;-62
2023/02/16 00:10:20;;;;;;;34.57;17.67;;;3.20;99.90;;;;;;5092459;27;20443;-62
2023/02/16 00:15:30;;;;;;;33.87;20.00;;;3.00;99.90;;;;;;5094798;28;20520;-63
2023/02/16 00:17:59;;;;;;;37.20;17.07;;;3.00;99.90;;;;;;5077843;28;20427;-62
2023/02/16 00:20:25;;;;;;;39.10;19.60;;;3.10;99.90;;;;;;5097496;28;20553;-62
2023/02/16 00:22:51;;;;;;;31.60;18.80;;;3.00;99.90;;;;;;5098357;27;20438;-62
2023/02/16 00:25:17;;;;;;;35.80;18.87;;;2.90;99.90;;;;;;5096749;28;20431;-62
2023/02/16 00:27:43;;;;;;;40.30;18.83;;;3.10;99.90;;;;;;5097273;28;20202;-62
2023/02/16 00:30:17;;;;;;;24.93;17.77;;;3.10;99.90;;;;;;5094883;27;20771;-63
2023/02/16 00:32:43;;;;;;;24.60;17.17;;;3.30;99.90;;;;;;5091294;27;20378;-62
2023/02/16 00:35:19;;;;;;;24.20;16.93;;;3.20;99.90;;;;;;5093302;27;20884;-62
2023/02/16 00:37:47;;;;;;;28.67;18.00;;;3.10;99.90;;;;;;5096343;27;20224;-62
2023/02/16 00:40:14;;;;;;;27.70;16.87;;;3.10;99.90;;;;;;5090526;28;20440;-63
2023/02/16 00:42:44;;;;;;;31.27;16.73;;;3.10;99.90;;;;;;5076646;28;20472;-62
2023/02/16 00:45:16;;;;;;;34.93;18.33;;;3.10;99.90;;;;;;5075371;28;20949;-62
2023/02/16 00:47:45;;;;;;;25.00;17.63;;;3.10;99.90;;;;;;5093959;27;20520;-62
2023/02/16 00:50:15;;;;;;;29.50;17.73;;;3.10;99.90;;;;;;5092131;28;20436;-62
2023/02/16 00:52:41;;;;;;;36.90;16.73;;;3.10;99.90;;;;;;5094781;27;20474;-62
2023/02/16 00:55:12;;;;;;;28.67;17.90;;;3.00;99.90;;;;;;5090488;27;20508;-63
2023/02/16 00:57:42;;;;;;;31.17;17.50;;;2.80;99.90;;;;;;5094918;27;20568;-62
2023/02/16 01:00:19;;;;;;;30.97;16.13;;;3.00;99.90;;;;;;5096656;27;20462;-62
2023/02/16 01:02:47;;;;;;;28.70;16.97;;;3.00;99.90;;;;;;5095576;27;20471;-62
2023/02/16 01:05:14;;;;;;;30.83;17.33;;;2.70;99.90;;;;;;5074530;28;21033;-62
2023/02/16 01:13:10;;;;;;;28.13;17.63;;;2.80;99.90;;;;;;5090910;27;20438;-63
2023/02/16 01:15:37;;;;;;;43.53;21.63;;;2.60;99.90;;;;;;5090360;27;20454;-62
2023/02/16 01:18:03;;;;;;;30.23;18.60;;;2.70;99.90;;;;;;5087138;27;20453;-62
2023/02/16 01:20:29;;;;;;;29.80;18.83;;;2.80;99.90;;;;;;5093402;27;20815;-62
2023/02/16 01:22:55;;;;;;;27.90;18.20;;;2.70;99.90;;;;;;5088369;27;20431;-62
2023/02/16 01:25:21;;;;;;;33.90;18.43;;;2.70;99.90;;;;;;5092411;28;20197;-63
2023/02/16 01:27:46;;;;;;;30.43;19.47;;;2.70;99.90;;;;;;5070653;28;20287;-63
2023/02/16 01:30:17;;;;;;;37.27;20.37;;;2.70;99.90;;;;;;5090655;27;20185;-62
2023/02/16 01:32:46;;;;;;;51.30;20.40;;;2.80;99.90;;;;;;5074955;28;20452;-63
2023/02/16 01:35:12;;;;;;;31.03;19.83;;;2.80;99.90;;;;;;5094634;28;20439;-63
2023/02/16 01:37:37;;;;;;;33.33;18.30;;;2.80;99.90;;;;;;5095558;27;20459;-63
2023/02/16 01:40:04;;;;;;;27.57;18.70;;;2.90;99.90;;;;;;5091585;28;20424;-62
2023/02/16 01:42:40;;;;;;;34.90;18.57;;;2.90;99.90;;;;;;5077094;28;20218;-63
2023/02/16 01:45:14;;;;;;;34.17;19.67;;;2.80;99.90;;;;;;5090418;28;20427;-63
2023/02/16 01:47:53;;;;;;;39.63;18.63;;;2.80;99.90;;;;;;5093455;27;20552;-62
2023/02/16 01:50:21;;;;;;;32.23;19.23;;;2.90;99.90;;;;;;5076995;28;20875;-62
2023/02/16 01:53:29;;;;;;;31.80;18.23;;;3.00;99.90;;;;;;5095381;28;20459;-62
2023/02/16 01:56:00;;;;;;;29.00;18.77;;;2.90;99.90;;;;;;5091873;27;20466;-62
2023/02/16 01:58:29;;;;;;;29.70;18.27;;;2.80;99.90;;;;;;5087966;28;20475;-63
2023/02/16 02:01:03;;;;;;;48.73;19.37;;;2.90;99.90;;;;;;5093937;27;20553;-62
2023/02/16 02:06:21;;;;;;;34.00;19.87;;;2.90;99.90;;;;;;5096689;28;20541;-62
2023/02/16 02:09:01;;;;;;;35.80;20.57;;;2.80;99.90;;;;;;5075664;28;21019;-62
2023/02/16 02:11:37;;;;;;;34.13;20.43;;;2.90;99.90;;;;;;5091695;28;20438;-62
2023/02/16 02:14:30;;;;;;;45.80;20.30;;;3.00;99.90;;;;;;5081610;28;20825;-62
2023/02/16 02:17:02;;;;;;;38.63;18.50;;;3.10;99.90;;;;;;5091774;27;20455;-62
2023/02/16 02:19:28;;;;;;;29.07;18.60;;;3.00;99.90;;;;;;5095510;28;20444;-62
2023/02/16 02:25:23;;;;;;;28.00;18.30;;;3.00;99.90;;;;;;5090500;28;20946;-62
2023/02/16 02:28:00;;;;;;;35.10;20.20;;;3.00;99.90;;;;;;5093213;28;20951;-62
2023/02/16 02:30:48;;;;;;;39.97;20.93;;;3.00;99.90;;;;;;5092249;28;20439;-62
2023/02/16 02:33:51;;;;;;;30.10;19.73;;;3.00;99.90;;;;;;5086237;28;20446;-62
2023/02/16 02:36:42;;;;;;;47.37;18.47;;;2.80;99.90;;;;;;5090537;28;20454;-62
2023/02/16 02:39:30;;;;;;;32.33;18.27;;;2.80;99.90;;;;;;5091506;28;20974;-62
2023/02/16 02:42:23;;;;;;;43.13;19.20;;;2.90;99.90;;;;;;5092671;28;20532;-62
2023/02/16 02:44:53;;;;;;;32.67;18.40;;;3.00;99.90;;;;;;5090011;28;20470;-62
2023/02/16 02:47:19;;;;;;;40.27;19.40;;;3.00;99.90;;;;;;5089737;28;20481;-62
2023/02/16 02:49:54;;;;;;;42.67;18.60;;;2.90;99.90;;;;;;5091490;28;20435;-62
2023/02/16 02:52:22;;;;;;;32.13;18.30;;;3.00;99.90;;;;;;5090533;28;20185;-62
2023/02/16 03:00:48;;;;;;;33.80;18.50;;;2.90;99.90;;;;;;5093928;28;20446;-62
2023/02/16 03:03:13;;;;;;;29.10;18.20;;;2.90;99.90;;;;;;5091167;28;20539;-62
2023/02/16 03:05:49;;;;;;;32.93;19.03;;;3.00;99.90;;;;;;5091429;28;20514;-62
2023/02/16 03:08:17;;;;;;;35.47;19.27;;;3.00;99.90;;;;;;5092175;28;20620;-62
2023/02/16 03:14:21;;;;;;;30.60;18.53;;;2.70;99.90;;;;;;5095847;27;20442;-62
2023/02/16 03:16:48;;;;;;;30.93;17.40;;;2.70;99.90;;;;;;5096915;27;20496;-62
2023/02/16 03:30:23;;;;;;;27.73;15.53;;;2.80;99.90;;;;;;5094016;27;20442;-62
2023/02/16 03:32:49;;;;;;;30.30;18.20;;;2.70;99.90;;;;;;5096261;27;20540;-62
2023/02/16 03:35:15;;;;;;;29.77;17.87;;;2.70;99.90;;;;;;5095172;28;20439;-62
2023/02/16 03:37:42;;;;;;;54.10;18.20;;;2.80;99.90;;;;;;5096449;27;20458;-62
2023/02/16 03:40:27;;;;;;;31.93;17.20;;;2.80;99.90;;;;;;5079293;27;20184;-62
2023/02/16 03:42:54;;;;;;;30.97;18.17;;;2.60;99.90;;;;;;5098117;27;20869;-62
2023/02/16 03:45:21;;;;;;;31.60;19.97;;;2.60;99.90;;;;;;5099994;27;20561;-62
2023/02/16 03:47:47;;;;;;;34.07;18.27;;;2.60;99.90;;;;;;5098982;27;20456;-62
2023/02/16 03:50:12;;;;;;;31.60;19.07;;;2.70;99.90;;;;;;5097934;27;20431;-62
2023/02/16 03:52:38;;;;;;;28.43;18.10;;;2.80;99.90;;;;;;5080883;27;20174;-62
2023/02/16 03:55:04;;;;;;;31.27;19.10;;;2.70;99.90;;;;;;5080931;28;20212;-62
2023/02/16 03:57:29;;;;;;;29.67;19.50;;;2.70;99.90;;;;;;5102325;27;20209;-62
2023/02/16 03:59:55;;;;;;;35.43;19.10;;;2.70;99.90;;;;;;5097894;27;20918;-62
2023/02/16 04:02:20;;;;;;;25.97;19.07;;;2.70;99.90;;;;;;5090037;27;20208;-62
2023/02/16 04:04:46;;;;;;;31.13;20.07;;;2.70;99.90;;;;;;5098137;27;20647;-62
2023/02/16 04:07:12;;;;;;;34.33;20.53;;;2.90;99.90;;;;;;5095455;28;20194;-62
2023/02/16 04:09:38;;;;;;;25.60;18.53;;;2.80;99.90;;;;;;5095518;27;20446;-63
2023/02/16 04:14:48;;;;;;;28.67;19.40;;;2.90;99.90;;;;;;5095692;28;20266;-62
2023/02/16 04:17:13;;;;;;;30.33;17.80;;;2.80;99.90;;;;;;5095215;27;20511;-62
2023/02/16 04:19:39;;;;;;;24.47;17.07;;;2.80;99.90;;;;;;5093367;27;20193;-62
2023/02/16 04:22:04;;;;;;;39.47;17.60;;;2.80;99.90;;;;;;5090412;28;20696;-62
2023/02/16 04:24:30;;;;;;;35.53;18.17;;;2.70;99.90;;;;;;5091943;28;20265;-62
2023/02/16 04:26:56;;;;;;;30.20;18.13;;;2.60;99.90;;;;;;5074968;28;20284;-62
2023/02/16 04:29:21;;;;;;;42.60;20.53;;;2.50;99.90;;;;;;5094787;27;20849;-62
2023/02/16 04:31:47;;;;;;;31.47;17.67;;;2.50;99.90;;;;;;5095996;28;20211;-62
2023/02/16 04:34:12;;;;;;;30.73;20.60;;;2.50;99.90;;;;;;5089096;28;20200;-61
2023/02/16 04:36:38;;;;;;;35.97;18.40;;;2.60;99.90;;;;;;5094185;28;20208;-62
2023/02/16 04:39:03;;;;;;;36.97;20.40;;;2.70;99.90;;;;;;5091477;27;20193;-62
2023/02/16 04:41:29;;;;;;;28.27;19.40;;;2.80;99.90;;;;;;5091270;28;20356;-62
2023/02/16 04:43:55;;;;;;;39.10;18.57;;;2.60;99.90;;;;;;5087035;28;20180;-62
2023/02/16 04:46:20;;;;;;;28.87;17.60;;;2.70;99.90;;;;;;5092410;27;20297;-62
2023/02/16 04:48:46;;;;;;;34.50;18.40;;;2.80;99.90;;;;;;5094113;27;20706;-62
2023/02/16 04:51:11;;;;;;;32.93;18.83;;;2.80;99.90;;;;;;5092880;28;20185;-62
2023/02/16 04:53:37;;;;;;;29.07;18.40;;;2.80;99.90;;;;;;5093984;28;20189;-62
2023/02/16 04:56:03;;;;;;;29.40;19.23;;;2.80;99.90;;;;;;5089399;28;20651;-61
2023/02/16 04:58:28;;;;;;;35.50;18.17;;;2.80;99.90;;;;;;5091151;27;20187;-61
2023/02/16 05:00:54;;;;;;;28.10;18.63;;;2.80;99.90;;;;;;5089691;28;20228;-62
2023/02/16 05:03:19;;;;;;;34.57;18.97;;;2.90;99.90;;;;;;5096327;27;20181;-62
2023/02/16 05:05:45;;;;;;;26.57;18.10;;;2.70;99.90;;;;;;5092386;28;20190;-61
2023/02/16 05:08:10;;;;;;;30.03;17.80;;;2.60;99.90;;;;;;5072448;28;20185;-62
2023/02/16 05:10:36;;;;;;;29.67;18.37;;;2.60;99.90;;;;;;5086866;27;20209;-62
2023/02/16 05:15:46;;;;;;;31.27;19.97;;;2.70;99.90;;;;;;5090711;28;20212;-62
2023/02/16 05:18:11;;;;;;;26.17;17.30;;;2.60;99.90;;;;;;5093797;28;21018;-62
2023/02/16 05:23:21;;;;;;;38.60;17.10;;;2.80;99.90;;;;;;5094557;27;20176;-62
2023/02/16 05:25:47;;;;;;;25.20;17.33;;;2.70;99.90;;;;;;5093805;27;20462;-62
2023/02/16 05:28:12;;;;;;;29.10;19.40;;;2.60;99.90;;;;;;5092052;27;20182;-62
2023/02/16 05:30:38;;;;;;;29.03;17.60;;;2.50;99.90;;;;;;5093760;28;20197;-61
2023/02/16 05:33:03;;;;;;;32.73;18.97;;;2.60;99.90;;;;;;5087006;28;20177;-62
2023/02/16 05:35:29;;;;;;;33.20;21.20;;;2.50;99.90;;;;;;5095659;27;20186;-62
2023/02/16 05:37:54;;;;;;;28.57;17.40;;;2.50;99.90;;;;;;5094747;27;20205;-64
2023/02/16 05:40:20;;;;;;;30.77;19.40;;;2.50;99.90;;;;;;5091524;28;20212;-62
2023/02/16 05:42:45;;;;;;;26.60;17.93;;;2.50;99.90;;;;;;5095302;27;20296;-62
2023/02/16 05:45:11;;;;;;;24.57;16.70;;;2.60;99.90;;;;;;5093163;27;20182;-64
2023/02/16 05:47:36;;;;;;;32.27;18.57;;;2.60;99.90;;;;;;5092604;28;20202;-63
2023/02/16 05:50:02;;;;;;;27.07;18.77;;;2.50;99.90;;;;;;5074572;27;20562;-63
2023/02/16 05:52:27;;;;;;;27.27;17.07;;;2.60;99.90;;;;;;5092476;28;20713;-63
2023/02/16 05:54:53;;;;;;;26.80;18.73;;;2.60;99.90;;;;;;5095268;27;20197;-62
2023/02/16 05:57:18;;;;;;;23.00;17.10;;;2.60;99.90;;;;;;5092820;27;20205;-62
2023/02/16 05:59:44;;;;;;;33.00;17.37;;;2.60;99.90;;;;;;5088342;27;20196;-63
2023/02/16 06:02:10;;;;;;;26.93;18.70;;;2.70;99.90;;;;;;5077882;28;20213;-63
2023/02/16 06:04:35;;;;;;;21.90;16.50;;;2.80;99.90;;;;;;5093782;28;20570;-63
2023/02/16 06:07:01;;;;;;;26.40;17.57;;;2.60;99.90;;;;;;5088587;27;20206;-63
2023/02/16 06:09:27;;;;;;;25.40;18.00;;;2.50;99.90;;;;;;5092048;28;20560;-64
2023/02/16 06:11:52;;;;;;;26.30;17.27;;;2.50;99.90;;;;;;5075152;28;20443;-64
2023/02/16 06:14:19;;;;;;;28.73;18.57;;;2.50;99.90;;;;;;5093901;28;20185;-63
2023/02/16 06:16:47;;;;;;;28.83;17.70;;;2.60;99.90;;;;;;5072901;28;20205;-64
2023/02/16 06:19:15;;;;;;;27.27;16.77;;;2.50;99.90;;;;;;5089338;28;21101;-62
2023/02/16 06:21:40;;;;;;;26.30;18.00;;;2.40;99.90;;;;;;5092165;28;20544;-63
2023/02/16 06:24:08;;;;;;;26.67;18.80;;;2.40;99.90;;;;;;5089561;28;20435;-63
2023/02/16 06:26:34;;;;;;;27.27;17.63;;;2.50;99.90;;;;;;5090242;28;20488;-63
2023/02/16 06:29:00;;;;;;;26.33;17.73;;;2.50;99.90;;;;;;5087686;28;20442;-62
2023/02/16 06:31:26;;;;;;;26.47;17.53;;;2.50;99.90;;;;;;5091946;28;20435;-62
2023/02/16 06:33:52;;;;;;;28.70;19.13;;;2.40;99.90;;;;;;5091515;28;20185;-62
2023/02/16 06:36:19;;;;;;;34.07;18.80;;;2.40;99.90;;;;;;5090679;28;20489;-62
2023/02/16 06:38:44;;;;;;;32.07;19.60;;;2.40;99.90;;;;;;5092379;28;20822;-63
2023/02/16 06:41:10;;;;;;;28.43;17.03;;;2.40;99.90;;;;;;5092911;28;20473;-63
2023/02/16 06:43:36;;;;;;;29.60;16.40;;;2.50;99.90;;;;;;5094612;28;20439;-63
2023/02/16 06:46:02;;;;;;;26.90;18.00;;;2.50;99.90;;;;;;5094393;27;20541;-63
2023/02/16 06:48:28;;;;;;;28.00;18.63;;;2.50;99.90;;;;;;5092972;28;20182;-63
2023/02/16 06:50:53;;;;;;;26.70;17.57;;;2.60;99.90;;;;;;5095544;27;20446;-63
2023/02/16 06:53:19;;;;;;;28.40;17.47;;;2.60;99.90;;;;;;5092968;28;20178;-63
2023/02/16 06:55:45;;;;;;;28.13;17.00;;;2.60;99.90;;;;;;5093383;28;20561;-63
2023/02/16 06:58:11;;;;;;;34.07;18.27;;;2.50;99.90;;;;;;5093165;27;20433;-63
2023/02/16 07:00:37;;;;;;;21.83;15.17;;;2.40;99.90;;;;;;5093692;27;20196;-63
2023/02/16 07:03:03;;;;;;;27.47;16.63;;;2.30;99.90;;;;;;5095669;27;20474;-63
2023/02/16 07:05:28;;;;;;;34.70;18.37;;;2.30;99.90;;;;;;5092542;27;20436;-63
2023/02/16 07:07:54;;;;;;;27.73;18.77;;;2.40;99.90;;;;;;5090701;28;20205;-63
2023/02/16 07:10:20;;;;;;;33.83;19.47;;;2.50;99.90;;;;;;5092509;27;20902;-63
2023/02/16 07:12:46;;;;;;;27.30;18.87;;;2.50;99.90;;;;;;5074302;28;20189;-63
2023/02/16 07:15:11;;;;;;;33.87;17.90;;;2.50;99.90;;;;;;5093822;27;20170;-63
2023/02/16 07:17:37;;;;;;;28.07;17.13;;;2.50;99.90;;;;;;5095258;28;20458;-63
2023/02/16 07:20:06;;;;;;;27.70;18.30;;;2.50;99.90;;;;;;5092115;28;20217;-63
2023/02/16 07:22:32;;;;;;;26.03;19.47;;;2.50;99.90;;;;;;5091279;28;20204;-63
2023/02/16 07:24:59;;;;;;;27.77;18.90;;;2.60;99.90;;;;;;5090670;28;22033;-62
2023/02/16 07:27:25;;;;;;;25.80;17.57;;;2.60;99.90;;;;;;5088584;27;20474;-63
2023/02/16 07:29:51;;;;;;;30.13;19.33;;;2.60;99.90;;;;;;5091060;28;20511;-63
2023/02/16 07:32:17;;;;;;;40.90;20.33;;;2.70;99.90;;;;;;5098338;28;21032;-63
2023/02/16 07:34:42;;;;;;;29.17;19.73;;;2.80;99.90;;;;;;5077320;28;20192;-62
2023/02/16 07:37:08;;;;;;;29.43;18.30;;;2.80;99.90;;;;;;5088825;28;20284;-63
2023/02/16 07:39:33;;;;;;;31.27;18.63;;;2.80;99.90;;;;;;5094139;28;20178;-63
2023/02/16 07:41:59;;;;;;;33.50;20.00;;;2.90;99.90;;;;;;5093542;28;20201;-62
2023/02/16 07:44:25;;;;;;;28.00;18.90;;;2.90;99.90;;;;;;5093740;28;20243;-63
2023/02/16 07:46:51;;;;;;;30.87;18.20;;;2.90;99.90;;;;;;5093231;27;20459;-62
2023/02/16 07:49:16;;;;;;;29.10;18.57;;;2.90;99.90;;;;;;5071524;27;20563;-62
2023/02/16 07:51:43;;;;;;;28.70;17.83;;;2.80;99.90;;;;;;5092684;28;20437;-63
2023/02/16 07:54:09;;;;;;;31.80;19.10;;;2.90;99.90;;;;;;5094566;28;20562;-62
2023/02/16 07:56:34;;;;;;;33.53;20.10;;;2.90;99.90;;;;;;5097039;27;20463;-63
2023/02/16 07:59:01;;;;;;;28.97;19.37;;;3.00;99.90;;;;;;5094036;27;20190;-63
2023/02/16 08:01:28;;;;;;;32.00;21.40;;;3.00;99.90;;;;;;5100004;27;20263;-62
2023/02/16 08:03:55;;;;;;;31.30;20.00;;;3.00;99.90;;;;;;5094562;28;20415;-62
2023/02/16 08:06:21;;;;;;;27.40;19.60;;;3.10;99.90;;;;;;5090819;28;20497;-63
2023/02/16 08:08:46;;;;;;;33.23;21.20;;;3.10;99.90;;;;;;5089646;27;20537;-62
2023/02/16 08:11:15;;;;;;;29.13;19.93;;;3.20;99.90;;;;;;5091209;28;20189;-62
2023/02/16 08:13:41;;;;;;;29.97;19.00;;;3.10;99.90;;;;;;5091553;27;20355;-62
2023/02/16 08:16:20;;;;;;;31.10;19.80;;;3.10;99.90;;;;;;5089768;28;21224;-62
2023/02/16 08:18:45;;;;;;;35.90;20.93;;;3.10;99.90;;;;;;5095646;28;20643;-62
2023/02/16 08:21:17;;;;;;;35.00;21.70;;;3.20;99.90;;;;;;5096271;27;20463;-62
2023/02/16 08:24:03;;;;;;;35.40;21.43;;;3.20;99.90;;;;;;5094455;28;20179;-62
2023/02/16 08:26:37;;;;;;;26.87;19.30;;;3.30;99.90;;;;;;5095710;27;20457;-63
2023/02/16 08:29:04;;;;;;;27.10;18.30;;;3.50;99.90;;;;;;5092525;27;20740;-63
2023/02/16 08:31:31;;;;;;;30.03;20.47;;;3.50;99.90;;;;;;5096144;28;20605;-62
2023/02/16 08:33:59;;;;;;;32.57;22.03;;;3.50;99.90;;;;;;5074914;28;20431;-62
2023/02/16 08:36:31;;;;;;;34.20;21.17;;;3.40;99.90;;;;;;5094286;27;20527;-62
2023/02/16 08:38:58;;;;;;;27.43;19.90;;;3.50;99.90;;;;;;5090145;28;20503;-62
2023/02/16 08:41:27;;;;;;;34.63;22.20;;;3.50;99.90;;;;;;5095061;28;20555;-62
2023/02/16 08:43:54;;;;;;;31.20;21.90;;;3.50;99.90;;;;;;5075447;27;20417;-63
2023/02/16 08:46:20;;;;;;;38.37;21.97;;;3.40;99.90;;;;;;5088129;27;20459;-63
2023/02/16 08:48:46;;;;;;;32.53;20.37;;;3.40;99.90;;;;;;5085611;28;22348;-62
2023/02/16 08:51:17;;;;;;;38.00;23.03;;;3.30;99.90;;;;;;5091885;28;20898;-62
2023/02/16 08:53:45;;;;;;;42.50;23.20;;;3.40;99.90;;;;;;5092226;27;20432;-63
2023/02/16 08:56:11;;;;;;;34.80;22.10;;;3.50;99.90;;;;;;5093005;27;21059;-62
2023/02/16 08:58:37;;;;;;;35.87;21.63;;;3.60;99.90;;;;;;5092347;27;20444;-62
2023/02/16 09:01:07;;;;;;;33.90;21.37;;;3.60;99.90;;;;;;5093714;27;20492;-61
2023/02/16 09:03:34;;;;;;;39.70;21.90;;;3.70;99.90;;;;;;5078492;28;20291;-60
2023/02/16 09:06:03;;;;;;;34.03;23.17;;;3.70;99.90;;;;;;5094492;27;20459;-61
2023/02/16 09:08:29;;;;;;;32.50;21.37;;;3.70;99.90;;;;;;5092156;28;20436;-61
2023/02/16 09:10:59;;;;;;;34.17;21.77;;;3.80;99.90;;;;;;5077674;28;20751;-60
2023/02/16 09:13:25;;;;;;;32.00;20.43;;;3.90;99.90;;;;;;5077111;28;20851;-62
2023/02/16 09:15:51;;;;;;;34.20;23.40;;;4.00;99.90;;;;;;5090023;27;20817;-62
2023/02/16 09:18:17;;;;;;;30.60;20.87;;;3.90;99.90;;;;;;5092631;27;21105;-62
2023/02/16 09:20:43;;;;;;;36.03;21.77;;;3.90;99.90;;;;;;5089732;28;20463;-62
2023/02/16 09:23:11;;;;;;;36.17;23.60;;;3.80;99.90;;;;;;5088869;27;20210;-63
2023/02/16 09:25:38;;;;;;;35.17;22.23;;;3.70;99.90;;;;;;5088687;28;20434;-63
2023/02/16 09:28:05;;;;;;;35.10;24.73;;;3.80;99.90;;;;;;5090534;27;20424;-62
2023/02/16 09:30:31;;;;;;;35.80;24.67;;;3.80;99.90;;;;;;5091781;28;20488;-63
2023/02/16 09:33:00;;;;;;;32.37;21.50;;;3.80;99.90;;;;;;5085600;27;20467;-63
2023/02/16 09:35:26;;;;;;;31.67;20.97;;;3.90;99.90;;;;;;5084571;27;20437;-62
2023/02/16 09:37:52;;;;;;;33.23;22.67;;;3.90;99.90;;;;;;5074381;28;20850;-64
2023/02/16 09:40:19;;;;;;;42.97;24.07;;;3.80;99.90;;;;;;5078444;28;21061;-62
2023/02/16 09:42:56;;;;;;;34.13;23.10;;;3.80;99.90;;;;;;5079593;27;20460;-62
2023/02/16 09:45:25;;;;;;;33.40;21.80;;;3.90;99.90;;;;;;5081383;27;21097;-62
2023/02/16 09:47:53;;;;;;;38.43;22.80;;;4.00;99.90;;;;;;5079927;28;20565;-62
2023/02/16 09:50:24;;;;;;;34.50;22.30;;;4.20;99.90;;;;;;5084080;28;20431;-61
2023/02/16 09:52:56;;;;;;;38.93;22.40;;;4.30;99.90;;;;;;5089111;28;20879;-61
2023/02/16 09:55:23;;;;;;;39.47;25.43;;;4.40;99.90;;;;;;5088699;27;20446;-62
2023/02/16 09:58:30;;;;;;;35.97;23.17;;;4.50;99.90;;;;;;5088045;28;20451;-62
2023/02/16 10:01:10;;;;;;;36.13;21.30;;;4.60;99.90;;;;;;5050400;28;20980;-62
2023/02/16 10:03:48;;;;;;;30.33;19.83;;;4.60;99.90;;;;;;5091278;28;20467;-62
2023/02/16 10:06:32;;;;;;;26.53;20.03;;;4.70;99.90;;;;;;5087163;27;20459;-62
2023/02/16 10:09:05;;;;;;;33.30;21.33;;;4.80;99.90;;;;;;5090394;28;20492;-62
2023/02/16 10:11:44;;;;;;;30.10;20.23;;;4.90;99.90;;;;;;5090125;27;20423;-63
2023/02/16 10:14:18;;;;;;;31.52;22.52;;;4.90;99.90;;;;;;5085977;28;20438;-63
2023/02/16 10:16:56;;;;;;;28.60;19.70;;;5.00;99.90;;;;;;5088303;27;20204;-64
2023/02/16 10:19:37;;;;;;;29.00;19.40;;;5.10;99.90;;;;;;5084992;28;20576;-63
2023/02/16 10:22:07;;;;;;;32.73;23.50;;;5.30;99.90;;;;;;5087665;28;20463;-64
2023/02/16 10:24:43;;;;;;;29.07;22.20;;;5.30;99.90;;;;;;5092534;28;20432;-64
2023/02/16 10:27:14;;;;;;;36.30;23.30;;;5.40;99.90;;;;;;5087966;28;20645;-64
2023/02/16 10:29:39;;;;;;;32.67;21.57;;;5.50;99.90;;;;;;5088528;28;20474;-62
2023/02/16 10:32:28;;;;;;;30.90;21.13;;;5.70;99.90;;;;;;5087704;28;20416;-62
2023/02/16 10:34:58;;;;;;;32.83;21.13;;;5.70;99.90;;;;;;5074720;28;20185;-62
2023/02/16 10:37:54;;;;;;;33.30;22.30;;;5.80;99.90;;;;;;5092895;28;21094;-62
2023/02/16 10:40:33;;;;;;;32.73;21.03;;;5.90;99.90;;;;;;5092823;28;20426;-62
2023/02/16 10:43:20;;;;;;;31.87;20.90;;;6.20;99.90;;;;;;5086186;28;20463;-62
2023/02/16 10:45:58;;;;;;;27.47;19.80;;;6.30;99.90;;;;;;5088445;28;20467;-62
2023/02/16 10:48:25;;;;;;;27.70;20.37;;;6.50;99.90;;;;;;5089283;28;20461;-62
2023/02/16 10:51:03;;;;;;;30.00;20.00;;;6.60;99.90;;;;;;5088178;28;20804;-62
2023/02/16 10:53:40;;;;;;;25.00;18.73;;;6.70;99.90;;;;;;5089057;28;20439;-62
2023/02/16 10:56:25;;;;;;;22.80;17.10;;;6.80;99.90;;;;;;5087357;28;20486;-62
2023/02/16 10:58:51;;;;;;;28.33;19.20;;;6.80;99.90;;;;;;5088560;28;20436;-62
2023/02/16 11:01:30;;;;;;;28.07;19.67;;;7.00;99.90;;;;;;5069001;28;20451;-65
2023/02/16 11:03:56;;;;;;;26.20;18.30;;;7.10;99.90;;;;;;5090040;28;20431;-62
2023/02/16 11:06:27;;;;;;;23.73;18.10;;;7.30;99.90;;;;;;5087952;28;20492;-63
2023/02/16 11:08:59;;;;;;;28.77;18.53;;;7.60;99.90;;;;;;5085811;28;20187;-63
2023/02/16 11:11:39;;;;;;;24.07;18.07;;;7.80;99.90;;;;;;5089709;28;20542;-62
2023/02/16 11:14:24;;;;;;;24.43;18.27;;;8.00;99.90;;;;;;5089624;28;20450;-62
2023/02/16 11:17:15;;;;;;;26.03;19.00;;;8.30;99.90;;;;;;5092794;28;20455;-63
2023/02/16 11:19:58;;;;;;;28.43;17.43;;;8.40;99.90;;;;;;5087135;28;20430;-63
2023/02/16 11:22:38;;;;;;;21.90;16.90;;;8.50;99.90;;;;;;5086784;28;20463;-63
2023/02/16 11:25:23;;;;;;;24.10;18.10;;;8.70;99.90;;;;;;5093022;28;20416;-64
2023/02/16 11:28:04;;;;;;;23.13;18.57;;;8.80;99.90;;;;;;5092291;27;20428;-64
2023/02/16 11:30:38;;;;;;;24.37;19.07;;;8.80;99.90;;;;;;5073237;28;20436;-64
2023/02/16 11:33:22;;;;;;;25.63;18.67;;;8.80;99.90;;;;;;5084236;28;20450;-64
2023/02/16 11:35:48;;;;;;;23.20;17.20;;;8.90;99.90;;;;;;5069023;28;21167;-64
2023/02/16 11:38:32;;;;;;;22.17;17.60;;;9.00;99.90;;;;;;5090418;27;20463;-64
2023/02/16 11:41:00;;;;;;;27.03;17.90;;;9.20;99.90;;;;;;5092826;28;20446;-64
2023/02/16 11:43:30;;;;;;;22.00;17.00;;;9.30;99.90;;;;;;5094790;28;20432;-64
2023/02/16 11:46:16;;;;;;;19.60;16.63;;;9.40;99.90;;;;;;5090724;28;20467;-63
2023/02/16 11:48:42;;;;;;;23.77;18.07;;;9.50;99.90;;;;;;5095437;27;20435;-63
2023/02/16 11:51:09;;;;;;;22.57;17.03;;;9.70;99.90;;;;;;5090107;27;21263;-64
2023/02/16 11:53:41;;;;;;;22.37;17.97;;;9.80;99.90;;;;;;5094872;27;20439;-64
2023/02/16 11:56:27;;;;;;;24.30;17.97;;;10.00;99.90;;;;;;5091517;27;20518;-64
2023/02/16 11:59:13;;;;;;;24.73;18.57;;;10.20;99.90;;;;;;5096190;27;20516;-64
2023/02/16 12:01:47;;;;;;;23.47;17.20;;;10.40;99.90;;;;;;5093271;27;20948;-64
2023/02/16 12:04:54;;;;;;;23.47;16.63;;;10.50;99.90;;;;;;5094115;28;20802;-64
2023/02/16 12:07:29;;;;;;;18.77;15.50;;;10.70;99.90;;;;;;5089224;28;20522;-63
2023/02/16 12:10:09;;;;;;;23.60;15.80;;;11.00;99.90;;;;;;5085071;28;20509;-64
2023/02/16 12:12:46;;;;;;;18.90;14.67;;;11.20;99.90;;;;;;5089736;27;20443;-64
2023/02/16 12:15:20;;;;;;;21.47;15.17;;;11.60;99.90;;;;;;5091711;27;20439;-64
2023/02/16 12:17:53;;;;;;;18.53;16.33;;;11.70;99.90;;;;;;5089710;27;20455;-64
2023/02/16 12:20:24;;;;;;;17.87;14.83;;;12.10;99.90;;;;;;5083485;28;21239;-65
2023/02/16 12:23:16;;;;;;;24.57;15.03;;;12.50;99.90;;;;;;5090487;27;20474;-65
2023/02/16 12:26:15;;;;;;;18.73;15.00;;;12.70;99.90;;;;;;5090116;27;20524;-65
2023/02/16 12:28:47;;;;;;;17.10;14.30;;;12.90;99.90;;;;;;5039831;28;20471;-63
2023/02/16 12:31:32;;;;;;;18.10;14.90;;;13.00;99.90;;;;;;5087129;27;20428;-63
2023/02/16 12:34:17;;;;;;;17.90;14.73;;;12.90;99.90;;;;;;5081932;27;20488;-64
2023/02/16 12:36:48;;;;;;;17.10;13.17;;;12.80;99.90;;;;;;5089529;28;20483;-63
2023/02/16 12:39:45;;;;;;;15.30;12.73;;;12.80;99.90;;;;;;5087200;28;20463;-64
2023/02/16 12:42:13;;;;;;;20.60;14.63;;;12.70;99.90;;;;;;5064605;28;20958;-63
2023/02/16 12:44:49;;;;;;;16.03;13.07;;;12.60;99.90;;;;;;5090641;28;20652;-62
2023/02/16 12:47:39;;;;;;;16.70;13.73;;;12.60;99.90;;;;;;5091743;27;20447;-62
2023/02/16 12:50:20;;;;;;;18.57;15.67;;;12.60;99.90;;;;;;5087884;28;20435;-62
2023/02/16 12:53:04;;;;;;;18.30;14.10;;;12.60;99.90;;;;;;5088810;28;20440;-62
2023/02/16 12:55:35;;;;;;;20.33;15.03;;;12.70;99.90;;;;;;5085344;28;20436;-62
2023/02/16 12:58:06;;;;;;;16.53;14.37;;;12.90;99.90;;;;;;5088149;27;20450;-62
2023/02/16 13:00:38;;;;;;;16.73;14.07;;;13.20;99.90;;;;;;5087038;28;20940;-62
2023/02/16 13:03:32;;;;;;;17.53;14.23;;;13.60;99.90;;;;;;5089269;27;20558;-63
2023/02/16 13:06:23;;;;;;;17.90;13.83;;;13.80;99.90;;;;;;5088600;28;20455;-62
2023/02/16 13:09:16;;;;;;;17.53;14.07;;;14.00;99.90;;;;;;5089562;27;20440;-63
2023/02/16 13:11:48;;;;;;;19.43;13.10;;;13.90;99.90;;;;;;5092408;27;20925;-64
2023/02/16 13:14:20;;;;;;;14.67;12.63;;;14.10;99.90;;;;;;5090278;27;20432;-63
2023/02/16 13:16:52;;;;;;;16.53;12.23;;;14.50;99.90;;;;;;5088954;27;20546;-64
2023/02/16 13:19:18;;;;;;;15.77;11.87;;;14.70;99.90;;;;;;5088449;28;20479;-62
2023/02/16 13:22:08;;;;;;;16.63;11.70;;;14.90;99.90;;;;;;5091835;27;20467;-63
2023/02/16 13:24:55;;;;;;;14.37;11.00;;;15.00;99.90;;;;;;5074927;28;20514;-63
2023/02/16 13:27:31;;;;;;;14.43;10.03;;;15.10;99.90;;;;;;5083736;28;20545;-63
2023/02/16 13:30:32;;;;;;;15.17;10.50;;;15.10;99.90;;;;;;5086204;28;20546;-62
2023/02/16 13:33:07;;;;;;;12.33;10.40;;;15.10;99.90;;;;;;5089443;27;20434;-63
2023/02/16 13:36:10;;;;;;;12.07;10.80;;;15.00;99.90;;;;;;5085517;27;20431;-63
2023/02/16 13:38:36;;;;;;;11.37;10.17;;;15.10;99.90;;;;;;5087899;27;20444;-63